sensor_id;sensor_type;location;lat;lon;timestamp;P1;durP1;ratioP1;P2;durP2;ratioP2
71148;SDS011;59072;42.144;25.200;2023-07-31T00:01:15;3.40;;;1.25;;
71148;SDS011;59072;42.144;25.200;2023-07-31T00:03:40;2.55;;;1.50;;
71148;SDS011;59072;42.144;25.200;2023-07-31T00:06:06;3.00;;;1.30;;
71148;SDS011;59072;42.144;25.200;2023-07-31T00:08:31;2.40;;;1.40;;
71148;SDS011;59072;42.144;25.200;2023-07-31T00:11:00;4.18;;;1.50;;
71148;SDS011;59072;42.144;25.200;2023-07-31T00:13:25;4.35;;;1.40;;
71148;SDS011;59072;42.144;25.200;2023-07-31T00:15:51;2.60;;;1.27;;
71148;SDS011;59072;42.144;25.200;2023-07-31T00:18:18;3.58;;;1.60;;
71148;SDS011;59072;42.144;25.200;2023-07-31T00:20:44;3.08;;;1.42;;
71148;SDS011;59072;42.144;25.200;2023-07-31T00:23:11;4.20;;;1.90;;
71148;SDS011;59072;42.144;25.200;2023-07-31T00:25:37;3.40;;;1.55;;
71148;SDS011;59072;42.144;25.200;2023-07-31T00:28:05;2.47;;;1.20;;
71148;SDS011;59072;42.144;25.200;2023-07-31T00:30:30;2.97;;;1.70;;
71148;SDS011;59072;42.144;25.200;2023-07-31T00:32:56;3.83;;;2.25;;
71148;SDS011;59072;42.144;25.200;2023-07-31T00:35:21;6.25;;;1.80;;
71148;SDS011;59072;42.144;25.200;2023-07-31T00:37:46;1.83;;;1.20;;
71148;SDS011;59072;42.144;25.200;2023-07-31T00:40:12;5.05;;;1.80;;
71148;SDS011;59072;42.144;25.200;2023-07-31T00:42:40;4.30;;;1.50;;
71148;SDS011;59072;42.144;25.200;2023-07-31T00:45:06;2.53;;;1.42;;
71148;SDS011;59072;42.144;25.200;2023-07-31T00:49:59;3.28;;;1.40;;
71148;SDS011;59072;42.144;25.200;2023-07-31T00:52:24;2.00;;;1.20;;
71148;SDS011;59072;42.144;25.200;2023-07-31T00:54:50;3.10;;;1.40;;
71148;SDS011;59072;42.144;25.200;2023-07-31T00:57:15;2.67;;;1.40;;
71148;SDS011;59072;42.144;25.200;2023-07-31T00:59:41;4.28;;;1.80;;
71148;SDS011;59072;42.144;25.200;2023-07-31T01:02:06;2.38;;;1.45;;
71148;SDS011;59072;42.144;25.200;2023-07-31T01:04:32;3.53;;;1.73;;
71148;SDS011;59072;42.144;25.200;2023-07-31T01:07:20;3.70;;;1.67;;
71148;SDS011;59072;42.144;25.200;2023-07-31T01:12:29;5.22;;;1.42;;
71148;SDS011;59072;42.144;25.200;2023-07-31T01:17:31;2.53;;;1.60;;
71148;SDS011;59072;42.144;25.200;2023-07-31T01:19:58;3.65;;;1.63;;
71148;SDS011;59072;42.144;25.200;2023-07-31T01:30:33;3.15;;;1.63;;
71148;SDS011;59072;42.144;25.200;2023-07-31T01:33:02;3.22;;;1.75;;
71148;SDS011;59072;42.144;25.200;2023-07-31T01:35:35;3.15;;;2.10;;
71148;SDS011;59072;42.144;25.200;2023-07-31T01:38:02;2.88;;;1.80;;
71148;SDS011;59072;42.144;25.200;2023-07-31T01:40:29;3.50;;;1.70;;
71148;SDS011;59072;42.144;25.200;2023-07-31T01:42:55;4.22;;;1.88;;
71148;SDS011;59072;42.144;25.200;2023-07-31T01:45:20;3.67;;;1.98;;
71148;SDS011;59072;42.144;25.200;2023-07-31T01:47:46;3.40;;;1.65;;
71148;SDS011;59072;42.144;25.200;2023-07-31T01:50:11;3.75;;;1.70;;
71148;SDS011;59072;42.144;25.200;2023-07-31T01:52:37;3.03;;;1.60;;
71148;SDS011;59072;42.144;25.200;2023-07-31T01:55:02;4.07;;;1.90;;
71148;SDS011;59072;42.144;25.200;2023-07-31T01:57:28;2.80;;;1.70;;
71148;SDS011;59072;42.144;25.200;2023-07-31T01:59:54;4.28;;;1.67;;
71148;SDS011;59072;42.144;25.200;2023-07-31T02:02:19;5.22;;;1.83;;
71148;SDS011;59072;42.144;25.200;2023-07-31T02:04:45;4.72;;;1.63;;
71148;SDS011;59072;42.144;25.200;2023-07-31T02:07:11;3.88;;;1.50;;
71148;SDS011;59072;42.144;25.200;2023-07-31T02:09:37;3.15;;;1.88;;
71148;SDS011;59072;42.144;25.200;2023-07-31T02:12:02;3.65;;;1.85;;
71148;SDS011;59072;42.144;25.200;2023-07-31T02:14:28;2.53;;;1.70;;
71148;SDS011;59072;42.144;25.200;2023-07-31T02:16:53;3.53;;;1.83;;
71148;SDS011;59072;42.144;25.200;2023-07-31T02:19:18;3.40;;;1.80;;
71148;SDS011;59072;42.144;25.200;2023-07-31T02:21:44;5.25;;;1.60;;
71148;SDS011;59072;42.144;25.200;2023-07-31T02:24:09;36.90;;;17.60;;
71148;SDS011;59072;42.144;25.200;2023-07-31T02:26:35;32.33;;;15.65;;
71148;SDS011;59072;42.144;25.200;2023-07-31T02:29:00;14.95;;;6.13;;
71148;SDS011;59072;42.144;25.200;2023-07-31T02:31:26;14.10;;;7.53;;
71148;SDS011;59072;42.144;25.200;2023-07-31T02:33:51;19.35;;;7.82;;
71148;SDS011;59072;42.144;25.200;2023-07-31T02:36:17;19.75;;;10.52;;
71148;SDS011;59072;42.144;25.200;2023-07-31T02:38:42;44.05;;;21.25;;
71148;SDS011;59072;42.144;25.200;2023-07-31T02:41:07;61.90;;;29.45;;
71148;SDS011;59072;42.144;25.200;2023-07-31T02:43:33;62.92;;;31.60;;
71148;SDS011;59072;42.144;25.200;2023-07-31T02:45:59;59.10;;;29.98;;
71148;SDS011;59072;42.144;25.200;2023-07-31T02:48:24;73.60;;;37.50;;
71148;SDS011;59072;42.144;25.200;2023-07-31T02:50:50;42.83;;;21.55;;
71148;SDS011;59072;42.144;25.200;2023-07-31T02:53:15;48.38;;;24.77;;
71148;SDS011;59072;42.144;25.200;2023-07-31T02:55:40;61.70;;;28.20;;
71148;SDS011;59072;42.144;25.200;2023-07-31T02:58:06;61.20;;;27.05;;
71148;SDS011;59072;42.144;25.200;2023-07-31T03:00:31;46.10;;;21.15;;
71148;SDS011;59072;42.144;25.200;2023-07-31T03:02:57;31.98;;;14.50;;
71148;SDS011;59072;42.144;25.200;2023-07-31T03:05:22;14.45;;;6.30;;
71148;SDS011;59072;42.144;25.200;2023-07-31T03:07:50;9.85;;;4.15;;
71148;SDS011;59072;42.144;25.200;2023-07-31T03:10:15;17.20;;;4.65;;
71148;SDS011;59072;42.144;25.200;2023-07-31T03:12:41;22.48;;;9.07;;
71148;SDS011;59072;42.144;25.200;2023-07-31T03:15:06;13.63;;;5.22;;
71148;SDS011;59072;42.144;25.200;2023-07-31T03:17:34;15.55;;;6.13;;
71148;SDS011;59072;42.144;25.200;2023-07-31T03:20:00;12.57;;;6.10;;
71148;SDS011;59072;42.144;25.200;2023-07-31T03:22:25;18.00;;;7.20;;
71148;SDS011;59072;42.144;25.200;2023-07-31T03:24:51;18.88;;;7.70;;
71148;SDS011;59072;42.144;25.200;2023-07-31T03:27:16;17.52;;;6.10;;
71148;SDS011;59072;42.144;25.200;2023-07-31T03:29:41;17.88;;;6.13;;
71148;SDS011;59072;42.144;25.200;2023-07-31T03:32:07;8.40;;;2.63;;
71148;SDS011;59072;42.144;25.200;2023-07-31T03:34:32;6.70;;;2.72;;
71148;SDS011;59072;42.144;25.200;2023-07-31T03:36:59;6.18;;;2.30;;
71148;SDS011;59072;42.144;25.200;2023-07-31T03:39:26;6.18;;;2.78;;
71148;SDS011;59072;42.144;25.200;2023-07-31T03:41:52;12.02;;;2.88;;
71148;SDS011;59072;42.144;25.200;2023-07-31T03:44:17;7.22;;;2.63;;
71148;SDS011;59072;42.144;25.200;2023-07-31T03:46:42;6.97;;;2.88;;
71148;SDS011;59072;42.144;25.200;2023-07-31T03:49:08;9.00;;;2.20;;
71148;SDS011;59072;42.144;25.200;2023-07-31T03:54:01;8.23;;;3.43;;
71148;SDS011;59072;42.144;25.200;2023-07-31T03:56:26;6.07;;;2.08;;
71148;SDS011;59072;42.144;25.200;2023-07-31T03:58:52;5.00;;;2.72;;
71148;SDS011;59072;42.144;25.200;2023-07-31T04:01:19;7.68;;;2.55;;
71148;SDS011;59072;42.144;25.200;2023-07-31T04:03:45;8.23;;;2.50;;
71148;SDS011;59072;42.144;25.200;2023-07-31T04:06:10;5.45;;;2.22;;
71148;SDS011;59072;42.144;25.200;2023-07-31T04:08:35;3.75;;;2.20;;
71148;SDS011;59072;42.144;25.200;2023-07-31T04:11:01;9.32;;;2.35;;
71148;SDS011;59072;42.144;25.200;2023-07-31T04:13:26;9.88;;;2.47;;
71148;SDS011;59072;42.144;25.200;2023-07-31T04:15:54;6.47;;;2.30;;
71148;SDS011;59072;42.144;25.200;2023-07-31T04:18:19;6.05;;;2.22;;
71148;SDS011;59072;42.144;25.200;2023-07-31T04:20:45;9.43;;;3.20;;
71148;SDS011;59072;42.144;25.200;2023-07-31T04:23:13;8.05;;;2.30;;
71148;SDS011;59072;42.144;25.200;2023-07-31T04:25:38;7.32;;;2.25;;
71148;SDS011;59072;42.144;25.200;2023-07-31T04:28:04;13.48;;;2.88;;
71148;SDS011;59072;42.144;25.200;2023-07-31T04:30:29;6.68;;;2.35;;
71148;SDS011;59072;42.144;25.200;2023-07-31T04:32:55;5.22;;;2.50;;
71148;SDS011;59072;42.144;25.200;2023-07-31T04:35:20;9.57;;;3.00;;
71148;SDS011;59072;42.144;25.200;2023-07-31T04:37:45;5.68;;;3.67;;
71148;SDS011;59072;42.144;25.200;2023-07-31T04:42:42;7.13;;;2.63;;
71148;SDS011;59072;42.144;25.200;2023-07-31T04:45:08;12.68;;;3.17;;
71148;SDS011;59072;42.144;25.200;2023-07-31T04:47:34;7.95;;;2.70;;
71148;SDS011;59072;42.144;25.200;2023-07-31T04:49:59;5.63;;;2.70;;
71148;SDS011;59072;42.144;25.200;2023-07-31T04:52:24;8.98;;;3.40;;
71148;SDS011;59072;42.144;25.200;2023-07-31T04:54:50;28.85;;;14.07;;
71148;SDS011;59072;42.144;25.200;2023-07-31T04:57:15;12.52;;;5.82;;
71148;SDS011;59072;42.144;25.200;2023-07-31T04:59:41;45.03;;;21.58;;
71148;SDS011;59072;42.144;25.200;2023-07-31T05:02:07;30.08;;;13.88;;
71148;SDS011;59072;42.144;25.200;2023-07-31T05:04:33;88.13;;;45.07;;
71148;SDS011;59072;42.144;25.200;2023-07-31T05:06:59;158.38;;;86.57;;
71148;SDS011;59072;42.144;25.200;2023-07-31T05:09:24;70.65;;;43.33;;
71148;SDS011;59072;42.144;25.200;2023-07-31T05:11:50;21.30;;;12.95;;
71148;SDS011;59072;42.144;25.200;2023-07-31T05:14:15;49.53;;;25.20;;
71148;SDS011;59072;42.144;25.200;2023-07-31T05:16:41;19.10;;;11.25;;
71148;SDS011;59072;42.144;25.200;2023-07-31T05:19:06;17.80;;;9.57;;
71148;SDS011;59072;42.144;25.200;2023-07-31T05:21:32;19.75;;;10.55;;
71148;SDS011;59072;42.144;25.200;2023-07-31T05:23:57;25.15;;;13.50;;
71148;SDS011;59072;42.144;25.200;2023-07-31T05:26:23;15.27;;;8.95;;
71148;SDS011;59072;42.144;25.200;2023-07-31T05:28:48;14.45;;;7.75;;
71148;SDS011;59072;42.144;25.200;2023-07-31T05:31:14;12.20;;;6.50;;
71148;SDS011;59072;42.144;25.200;2023-07-31T05:33:39;12.00;;;5.55;;
71148;SDS011;59072;42.144;25.200;2023-07-31T05:36:05;9.57;;;5.72;;
71148;SDS011;59072;42.144;25.200;2023-07-31T05:38:30;30.25;;;14.77;;
71148;SDS011;59072;42.144;25.200;2023-07-31T05:40:58;37.22;;;18.38;;
71148;SDS011;59072;42.144;25.200;2023-07-31T05:43:24;44.03;;;20.98;;
71148;SDS011;59072;42.144;25.200;2023-07-31T05:45:50;27.23;;;13.68;;
71148;SDS011;59072;42.144;25.200;2023-07-31T05:48:16;16.45;;;8.88;;
71148;SDS011;59072;42.144;25.200;2023-07-31T05:50:43;17.45;;;8.52;;
71148;SDS011;59072;42.144;25.200;2023-07-31T05:53:09;10.32;;;5.97;;
71148;SDS011;59072;42.144;25.200;2023-07-31T05:55:35;11.23;;;7.45;;
71148;SDS011;59072;42.144;25.200;2023-07-31T05:58:00;11.93;;;6.28;;
71148;SDS011;59072;42.144;25.200;2023-07-31T06:00:26;14.35;;;8.63;;
71148;SDS011;59072;42.144;25.200;2023-07-31T06:02:52;10.10;;;5.55;;
71148;SDS011;59072;42.144;25.200;2023-07-31T06:05:18;7.15;;;5.07;;
71148;SDS011;59072;42.144;25.200;2023-07-31T06:07:44;9.27;;;5.68;;
71148;SDS011;59072;42.144;25.200;2023-07-31T06:10:09;12.00;;;6.13;;
71148;SDS011;59072;42.144;25.200;2023-07-31T06:12:35;10.38;;;6.03;;
71148;SDS011;59072;42.144;25.200;2023-07-31T06:15:01;12.00;;;6.22;;
71148;SDS011;59072;42.144;25.200;2023-07-31T06:17:28;8.57;;;5.20;;
71148;SDS011;59072;42.144;25.200;2023-07-31T06:19:54;8.57;;;5.18;;
71148;SDS011;59072;42.144;25.200;2023-07-31T06:22:19;7.60;;;5.70;;
71148;SDS011;59072;42.144;25.200;2023-07-31T06:24:45;9.65;;;5.38;;
71148;SDS011;59072;42.144;25.200;2023-07-31T06:27:11;8.32;;;5.10;;
71148;SDS011;59072;42.144;25.200;2023-07-31T06:29:36;8.45;;;5.43;;
71148;SDS011;59072;42.144;25.200;2023-07-31T06:32:02;8.38;;;5.15;;
71148;SDS011;59072;42.144;25.200;2023-07-31T06:34:28;8.38;;;5.45;;
71148;SDS011;59072;42.144;25.200;2023-07-31T06:36:53;9.73;;;5.40;;
71148;SDS011;59072;42.144;25.200;2023-07-31T06:39:19;7.65;;;4.75;;
71148;SDS011;59072;42.144;25.200;2023-07-31T06:41:44;7.47;;;4.38;;
71148;SDS011;59072;42.144;25.200;2023-07-31T06:44:10;9.45;;;5.15;;
71148;SDS011;59072;42.144;25.200;2023-07-31T06:46:36;9.73;;;5.50;;
71148;SDS011;59072;42.144;25.200;2023-07-31T06:49:01;9.82;;;6.03;;
71148;SDS011;59072;42.144;25.200;2023-07-31T06:51:27;8.68;;;5.00;;
71148;SDS011;59072;42.144;25.200;2023-07-31T06:53:52;10.05;;;5.95;;
71148;SDS011;59072;42.144;25.200;2023-07-31T06:56:18;7.55;;;6.10;;
71148;SDS011;59072;42.144;25.200;2023-07-31T06:58:43;8.40;;;6.15;;
71148;SDS011;59072;42.144;25.200;2023-07-31T07:01:08;9.07;;;6.32;;
71148;SDS011;59072;42.144;25.200;2023-07-31T07:03:34;8.60;;;5.53;;
71148;SDS011;59072;42.144;25.200;2023-07-31T07:05:59;8.50;;;5.80;;
71148;SDS011;59072;42.144;25.200;2023-07-31T07:08:25;8.75;;;6.40;;
71148;SDS011;59072;42.144;25.200;2023-07-31T07:10:51;8.50;;;6.72;;
71148;SDS011;59072;42.144;25.200;2023-07-31T07:13:16;9.10;;;6.65;;
71148;SDS011;59072;42.144;25.200;2023-07-31T07:15:43;9.40;;;6.63;;
71148;SDS011;59072;42.144;25.200;2023-07-31T07:18:12;8.20;;;6.18;;
71148;SDS011;59072;42.144;25.200;2023-07-31T07:20:39;8.75;;;7.28;;
71148;SDS011;59072;42.144;25.200;2023-07-31T07:23:04;10.43;;;6.97;;
71148;SDS011;59072;42.144;25.200;2023-07-31T07:25:30;9.05;;;7.47;;
71148;SDS011;59072;42.144;25.200;2023-07-31T07:27:57;8.50;;;6.47;;
71148;SDS011;59072;42.144;25.200;2023-07-31T07:30:23;11.20;;;7.13;;
71148;SDS011;59072;42.144;25.200;2023-07-31T07:32:50;9.30;;;7.22;;
71148;SDS011;59072;42.144;25.200;2023-07-31T07:35:15;10.32;;;7.20;;
71148;SDS011;59072;42.144;25.200;2023-07-31T07:37:41;9.25;;;7.13;;
71148;SDS011;59072;42.144;25.200;2023-07-31T07:40:06;9.85;;;7.20;;
71148;SDS011;59072;42.144;25.200;2023-07-31T07:42:32;10.73;;;7.50;;
71148;SDS011;59072;42.144;25.200;2023-07-31T07:44:57;9.35;;;7.03;;
71148;SDS011;59072;42.144;25.200;2023-07-31T07:47:23;8.65;;;6.97;;
71148;SDS011;59072;42.144;25.200;2023-07-31T07:49:51;15.05;;;8.30;;
71148;SDS011;59072;42.144;25.200;2023-07-31T07:52:16;9.70;;;7.82;;
71148;SDS011;59072;42.144;25.200;2023-07-31T07:54:42;10.68;;;7.13;;
71148;SDS011;59072;42.144;25.200;2023-07-31T07:57:07;12.82;;;8.50;;
71148;SDS011;59072;42.144;25.200;2023-07-31T07:59:32;12.35;;;7.70;;
71148;SDS011;59072;42.144;25.200;2023-07-31T08:01:58;10.63;;;7.82;;
71148;SDS011;59072;42.144;25.200;2023-07-31T08:04:23;13.07;;;10.60;;
71148;SDS011;59072;42.144;25.200;2023-07-31T08:06:49;9.38;;;8.30;;
71148;SDS011;59072;42.144;25.200;2023-07-31T08:09:14;13.05;;;9.43;;
71148;SDS011;59072;42.144;25.200;2023-07-31T08:11:39;13.27;;;10.68;;
71148;SDS011;59072;42.144;25.200;2023-07-31T08:14:05;10.57;;;8.32;;
71148;SDS011;59072;42.144;25.200;2023-07-31T08:16:33;10.57;;;8.52;;
71148;SDS011;59072;42.144;25.200;2023-07-31T08:18:59;11.82;;;8.48;;
71148;SDS011;59072;42.144;25.200;2023-07-31T08:21:25;13.65;;;11.68;;
71148;SDS011;59072;42.144;25.200;2023-07-31T08:23:50;9.82;;;8.48;;
71148;SDS011;59072;42.144;25.200;2023-07-31T08:26:16;12.30;;;9.38;;
71148;SDS011;59072;42.144;25.200;2023-07-31T08:28:42;14.82;;;12.45;;
71148;SDS011;59072;42.144;25.200;2023-07-31T08:31:08;11.93;;;10.70;;
71148;SDS011;59072;42.144;25.200;2023-07-31T08:33:41;12.07;;;10.50;;
71148;SDS011;59072;42.144;25.200;2023-07-31T08:36:06;15.85;;;11.85;;
71148;SDS011;59072;42.144;25.200;2023-07-31T08:38:32;12.32;;;11.02;;
71148;SDS011;59072;42.144;25.200;2023-07-31T08:40:58;12.93;;;11.05;;
71148;SDS011;59072;42.144;25.200;2023-07-31T08:43:26;14.70;;;11.23;;
71148;SDS011;59072;42.144;25.200;2023-07-31T08:45:52;13.68;;;11.93;;
71148;SDS011;59072;42.144;25.200;2023-07-31T08:48:19;17.42;;;12.63;;
71148;SDS011;59072;42.144;25.200;2023-07-31T08:50:45;14.40;;;12.43;;
71148;SDS011;59072;42.144;25.200;2023-07-31T08:53:11;14.73;;;11.85;;
71148;SDS011;59072;42.144;25.200;2023-07-31T08:55:37;15.05;;;12.32;;
71148;SDS011;59072;42.144;25.200;2023-07-31T08:58:03;15.73;;;13.10;;
71148;SDS011;59072;42.144;25.200;2023-07-31T09:00:30;13.88;;;11.98;;
71148;SDS011;59072;42.144;25.200;2023-07-31T09:02:59;12.50;;;11.00;;
71148;SDS011;59072;42.144;25.200;2023-07-31T09:05:30;12.00;;;10.80;;
71148;SDS011;59072;42.144;25.200;2023-07-31T09:07:57;12.65;;;11.35;;
71148;SDS011;59072;42.144;25.200;2023-07-31T09:10:23;14.18;;;11.73;;
71148;SDS011;59072;42.144;25.200;2023-07-31T09:12:50;12.55;;;11.25;;
71148;SDS011;59072;42.144;25.200;2023-07-31T09:17:42;11.27;;;10.07;;
71148;SDS011;59072;42.144;25.200;2023-07-31T09:22:43;12.73;;;10.43;;
71148;SDS011;59072;42.144;25.200;2023-07-31T09:27:47;14.02;;;11.30;;
71148;SDS011;59072;42.144;25.200;2023-07-31T09:30:25;11.50;;;9.98;;
71148;SDS011;59072;42.144;25.200;2023-07-31T09:32:59;13.00;;;10.05;;
71148;SDS011;59072;42.144;25.200;2023-07-31T09:35:30;12.98;;;9.77;;
71148;SDS011;59072;42.144;25.200;2023-07-31T09:37:58;11.73;;;9.02;;
71148;SDS011;59072;42.144;25.200;2023-07-31T09:40:27;11.65;;;9.82;;
71148;SDS011;59072;42.144;25.200;2023-07-31T09:42:58;12.00;;;9.80;;
71148;SDS011;59072;42.144;25.200;2023-07-31T09:45:28;9.52;;;8.52;;
71148;SDS011;59072;42.144;25.200;2023-07-31T09:47:54;9.60;;;8.60;;
71148;SDS011;59072;42.144;25.200;2023-07-31T09:50:21;9.93;;;8.93;;
71148;SDS011;59072;42.144;25.200;2023-07-31T09:52:47;9.73;;;8.73;;
71148;SDS011;59072;42.144;25.200;2023-07-31T09:55:13;10.77;;;8.73;;
71148;SDS011;59072;42.144;25.200;2023-07-31T09:57:42;10.50;;;8.70;;
71148;SDS011;59072;42.144;25.200;2023-07-31T10:00:09;11.18;;;8.02;;
71148;SDS011;59072;42.144;25.200;2023-07-31T10:02:36;9.00;;;8.10;;
71148;SDS011;59072;42.144;25.200;2023-07-31T10:05:03;8.80;;;7.90;;
71148;SDS011;59072;42.144;25.200;2023-07-31T10:07:30;9.87;;;7.97;;
71148;SDS011;59072;42.144;25.200;2023-07-31T10:10:00;9.15;;;8.25;;
71148;SDS011;59072;42.144;25.200;2023-07-31T10:12:26;8.13;;;7.20;;
71148;SDS011;59072;42.144;25.200;2023-07-31T10:14:55;8.15;;;7.15;;
71148;SDS011;59072;42.144;25.200;2023-07-31T10:17:21;9.10;;;8.20;;
71148;SDS011;59072;42.144;25.200;2023-07-31T10:19:48;9.47;;;8.03;;
71148;SDS011;59072;42.144;25.200;2023-07-31T10:22:14;9.40;;;8.43;;
71148;SDS011;59072;42.144;25.200;2023-07-31T10:24:44;9.05;;;8.15;;
71148;SDS011;59072;42.144;25.200;2023-07-31T10:27:11;8.63;;;6.88;;
71148;SDS011;59072;42.144;25.200;2023-07-31T10:29:40;8.20;;;6.53;;
71148;SDS011;59072;42.144;25.200;2023-07-31T10:32:08;8.20;;;7.40;;
71148;SDS011;59072;42.144;25.200;2023-07-31T10:34:36;8.00;;;7.20;;
71148;SDS011;59072;42.144;25.200;2023-07-31T10:37:27;7.30;;;5.93;;
71148;SDS011;59072;42.144;25.200;2023-07-31T10:42:32;7.07;;;6.15;;
71148;SDS011;59072;42.144;25.200;2023-07-31T10:44:59;7.47;;;6.35;;
71148;SDS011;59072;42.144;25.200;2023-07-31T10:47:26;7.40;;;6.60;;
71148;SDS011;59072;42.144;25.200;2023-07-31T10:49:52;9.10;;;6.60;;
71148;SDS011;59072;42.144;25.200;2023-07-31T10:52:21;7.65;;;5.78;;
71148;SDS011;59072;42.144;25.200;2023-07-31T10:55:14;6.75;;;5.50;;
71148;SDS011;59072;42.144;25.200;2023-07-31T10:57:44;6.55;;;5.75;;
71148;SDS011;59072;42.144;25.200;2023-07-31T11:00:30;7.43;;;5.65;;
71148;SDS011;59072;42.144;25.200;2023-07-31T11:03:05;7.90;;;5.93;;
71148;SDS011;59072;42.144;25.200;2023-07-31T11:08:26;7.18;;;5.97;;
71148;SDS011;59072;42.144;25.200;2023-07-31T11:13:42;7.25;;;5.60;;
71148;SDS011;59072;42.144;25.200;2023-07-31T11:16:10;7.35;;;5.20;;
71148;SDS011;59072;42.144;25.200;2023-07-31T11:18:40;6.95;;;5.63;;
71148;SDS011;59072;42.144;25.200;2023-07-31T11:21:07;6.95;;;5.32;;
71148;SDS011;59072;42.144;25.200;2023-07-31T11:23:37;7.45;;;6.32;;
71148;SDS011;59072;42.144;25.200;2023-07-31T11:26:04;7.10;;;6.40;;
71148;SDS011;59072;42.144;25.200;2023-07-31T11:28:31;9.65;;;5.80;;
71148;SDS011;59072;42.144;25.200;2023-07-31T11:30:58;6.78;;;5.45;;
71148;SDS011;59072;42.144;25.200;2023-07-31T11:33:25;5.95;;;5.35;;
71148;SDS011;59072;42.144;25.200;2023-07-31T11:35:50;8.32;;;5.70;;
71148;SDS011;59072;42.144;25.200;2023-07-31T11:38:25;6.97;;;5.88;;
71148;SDS011;59072;42.144;25.200;2023-07-31T11:40:58;7.35;;;5.65;;
71148;SDS011;59072;42.144;25.200;2023-07-31T11:43:25;7.40;;;5.45;;
71148;SDS011;59072;42.144;25.200;2023-07-31T11:45:52;9.10;;;6.00;;
71148;SDS011;59072;42.144;25.200;2023-07-31T11:48:22;7.68;;;6.20;;
71148;SDS011;59072;42.144;25.200;2023-07-31T11:50:53;9.07;;;6.53;;
71148;SDS011;59072;42.144;25.200;2023-07-31T11:53:59;6.57;;;5.88;;
71148;SDS011;59072;42.144;25.200;2023-07-31T11:56:20;6.90;;;5.63;;
71148;SDS011;59072;42.144;25.200;2023-07-31T11:58:48;7.70;;;6.47;;
71148;SDS011;59072;42.144;25.200;2023-07-31T12:01:18;7.20;;;6.00;;
71148;SDS011;59072;42.144;25.200;2023-07-31T12:03:46;7.97;;;6.40;;
71148;SDS011;59072;42.144;25.200;2023-07-31T12:06:12;8.60;;;6.07;;
71148;SDS011;59072;42.144;25.200;2023-07-31T12:08:37;7.43;;;6.57;;
71148;SDS011;59072;42.144;25.200;2023-07-31T12:11:06;7.90;;;6.60;;
71148;SDS011;59072;42.144;25.200;2023-07-31T12:13:34;8.27;;;7.13;;
71148;SDS011;59072;42.144;25.200;2023-07-31T12:16:01;8.68;;;6.22;;
71148;SDS011;59072;42.144;25.200;2023-07-31T12:20:54;7.97;;;7.18;;
71148;SDS011;59072;42.144;25.200;2023-07-31T12:23:28;7.53;;;6.82;;
71148;SDS011;59072;42.144;25.200;2023-07-31T12:26:02;7.80;;;7.00;;
71148;SDS011;59072;42.144;25.200;2023-07-31T12:28:45;7.03;;;6.32;;
71148;SDS011;59072;42.144;25.200;2023-07-31T12:31:12;7.70;;;6.72;;
71148;SDS011;59072;42.144;25.200;2023-07-31T12:33:42;7.88;;;6.57;;
71148;SDS011;59072;42.144;25.200;2023-07-31T12:36:10;8.07;;;6.90;;
71148;SDS011;59072;42.144;25.200;2023-07-31T12:38:37;7.70;;;6.63;;
71148;SDS011;59072;42.144;25.200;2023-07-31T12:41:06;7.78;;;6.97;;
71148;SDS011;59072;42.144;25.200;2023-07-31T12:43:32;8.35;;;6.80;;
71148;SDS011;59072;42.144;25.200;2023-07-31T12:46:01;7.43;;;6.65;;
71148;SDS011;59072;42.144;25.200;2023-07-31T12:48:29;7.72;;;6.18;;
71148;SDS011;59072;42.144;25.200;2023-07-31T12:50:54;8.98;;;6.10;;
71148;SDS011;59072;42.144;25.200;2023-07-31T12:53:20;7.57;;;5.68;;
71148;SDS011;59072;42.144;25.200;2023-07-31T12:55:46;6.50;;;5.80;;
71148;SDS011;59072;42.144;25.200;2023-07-31T12:58:11;7.18;;;6.05;;
71148;SDS011;59072;42.144;25.200;2023-07-31T13:00:37;6.85;;;5.57;;
71148;SDS011;59072;42.144;25.200;2023-07-31T13:03:03;7.32;;;5.18;;
71148;SDS011;59072;42.144;25.200;2023-07-31T13:05:28;7.93;;;5.95;;
71148;SDS011;59072;42.144;25.200;2023-07-31T13:07:54;6.53;;;5.70;;
71148;SDS011;59072;42.144;25.200;2023-07-31T13:10:22;7.25;;;5.53;;
71148;SDS011;59072;42.144;25.200;2023-07-31T13:12:51;7.28;;;6.13;;
71148;SDS011;59072;42.144;25.200;2023-07-31T13:15:17;6.80;;;5.97;;
71148;SDS011;59072;42.144;25.200;2023-07-31T13:17:42;6.20;;;5.40;;
71148;SDS011;59072;42.144;25.200;2023-07-31T13:20:08;6.40;;;5.60;;
71148;SDS011;59072;42.144;25.200;2023-07-31T13:22:34;7.80;;;6.05;;
71148;SDS011;59072;42.144;25.200;2023-07-31T13:24:59;7.25;;;5.97;;
71148;SDS011;59072;42.144;25.200;2023-07-31T13:27:25;7.40;;;6.03;;
71148;SDS011;59072;42.144;25.200;2023-07-31T13:29:53;6.47;;;5.68;;
71148;SDS011;59072;42.144;25.200;2023-07-31T13:32:21;6.45;;;5.38;;
71148;SDS011;59072;42.144;25.200;2023-07-31T13:34:47;6.68;;;5.88;;
71148;SDS011;59072;42.144;25.200;2023-07-31T13:37:13;6.35;;;5.57;;
71148;SDS011;59072;42.144;25.200;2023-07-31T13:39:39;7.63;;;5.88;;
71148;SDS011;59072;42.144;25.200;2023-07-31T13:42:05;6.75;;;5.85;;
71148;SDS011;59072;42.144;25.200;2023-07-31T13:44:36;6.63;;;5.50;;
71148;SDS011;59072;42.144;25.200;2023-07-31T13:47:01;6.53;;;5.22;;
71148;SDS011;59072;42.144;25.200;2023-07-31T13:49:27;8.27;;;6.20;;
71148;SDS011;59072;42.144;25.200;2023-07-31T13:51:53;7.80;;;6.00;;
71148;SDS011;59072;42.144;25.200;2023-07-31T13:54:19;6.57;;;5.40;;
71148;SDS011;59072;42.144;25.200;2023-07-31T13:56:44;7.47;;;5.85;;
71148;SDS011;59072;42.144;25.200;2023-07-31T13:59:10;7.72;;;5.45;;
71148;SDS011;59072;42.144;25.200;2023-07-31T14:01:36;9.00;;;6.55;;
71148;SDS011;59072;42.144;25.200;2023-07-31T14:04:02;7.47;;;5.95;;
71148;SDS011;59072;42.144;25.200;2023-07-31T14:06:28;8.18;;;6.10;;
71148;SDS011;59072;42.144;25.200;2023-07-31T14:08:53;6.95;;;5.50;;
71148;SDS011;59072;42.144;25.200;2023-07-31T14:11:20;7.57;;;5.90;;
71148;SDS011;59072;42.144;25.200;2023-07-31T14:13:46;7.43;;;5.40;;
71148;SDS011;59072;42.144;25.200;2023-07-31T14:16:12;6.45;;;5.25;;
71148;SDS011;59072;42.144;25.200;2023-07-31T14:18:37;6.53;;;5.38;;
71148;SDS011;59072;42.144;25.200;2023-07-31T14:21:03;6.07;;;5.22;;
71148;SDS011;59072;42.144;25.200;2023-07-31T14:23:28;6.40;;;5.53;;
71148;SDS011;59072;42.144;25.200;2023-07-31T14:25:53;5.82;;;5.13;;
71148;SDS011;59072;42.144;25.200;2023-07-31T14:28:19;6.78;;;5.45;;
71148;SDS011;59072;42.144;25.200;2023-07-31T14:30:47;6.07;;;5.47;;
71148;SDS011;59072;42.144;25.200;2023-07-31T14:33:14;7.18;;;5.53;;
71148;SDS011;59072;42.144;25.200;2023-07-31T14:35:40;6.30;;;5.13;;
71148;SDS011;59072;42.144;25.200;2023-07-31T14:38:05;6.15;;;5.30;;
71148;SDS011;59072;42.144;25.200;2023-07-31T14:40:30;6.10;;;5.22;;
71148;SDS011;59072;42.144;25.200;2023-07-31T14:42:56;6.10;;;5.50;;
71148;SDS011;59072;42.144;25.200;2023-07-31T14:45:21;7.05;;;5.70;;
71148;SDS011;59072;42.144;25.200;2023-07-31T14:47:47;6.65;;;5.68;;
71148;SDS011;59072;42.144;25.200;2023-07-31T14:50:12;8.73;;;5.93;;
71148;SDS011;59072;42.144;25.200;2023-07-31T14:52:38;6.43;;;5.70;;
71148;SDS011;59072;42.144;25.200;2023-07-31T14:55:03;6.00;;;5.22;;
71148;SDS011;59072;42.144;25.200;2023-07-31T14:57:29;6.95;;;6.05;;
71148;SDS011;59072;42.144;25.200;2023-07-31T14:59:55;7.35;;;5.10;;
71148;SDS011;59072;42.144;25.200;2023-07-31T15:02:22;8.32;;;6.20;;
71148;SDS011;59072;42.144;25.200;2023-07-31T15:04:48;6.68;;;5.90;;